createdAt,value
2022-10-17T00:00:00.014Z,68750.13
2022-10-17T00:02:27.457Z,68749.00
2022-10-17T00:04:54.810Z,68748.06
2022-10-17T00:07:22.163Z,68750.53
2022-10-17T00:09:49.384Z,68748.44
2022-10-17T00:12:16.614Z,68746.75
2022-10-17T00:14:43.949Z,68744.44
2022-10-17T00:17:11.267Z,68723.34
2022-10-17T00:19:38.475Z,68749.19
2022-10-17T00:22:05.660Z,68745.22
2022-10-17T00:24:32.914Z,68733.44
2022-10-17T00:27:03.736Z,68729.69
2022-10-17T00:29:30.945Z,68733.66
2022-10-17T00:31:58.177Z,68713.78
2022-10-17T00:34:26.116Z,68712.25
2022-10-17T00:36:53.247Z,68711.13
2022-10-17T00:39:20.960Z,68713.19
2022-10-17T00:41:48.096Z,68708.09
2022-10-17T00:44:30.350Z,68698.59
2022-10-17T00:46:59.499Z,68694.44
2022-10-17T00:49:32.441Z,68685.53
2022-10-17T00:52:04.717Z,68691.97
2022-10-17T00:54:35.892Z,68707.50
2022-10-17T00:57:03.940Z,68706.38
2022-10-17T00:59:34.260Z,68691.03
2022-10-17T01:02:08.700Z,68688.78
2022-10-17T01:04:38.451Z,68689.91
2022-10-17T01:07:06.823Z,68687.22
2022-10-17T01:09:34.964Z,68688.94
2022-10-17T01:12:14.203Z,68691.22
2022-10-17T01:14:56.306Z,68690.09
2022-10-17T01:17:42.903Z,68693.50
2022-10-17T01:20:48.525Z,68688.38
2022-10-17T01:23:19.241Z,68668.25
2022-10-17T01:26:17.493Z,68688.56
2022-10-17T01:29:11.462Z,68675.50
2022-10-17T01:32:02.977Z,68680.81
2022-10-17T01:34:43.923Z,68668.31
2022-10-17T01:37:34.003Z,68662.06
2022-10-17T01:40:12.093Z,68659.78
2022-10-17T01:42:44.578Z,68663.38
2022-10-17T01:45:23.167Z,68658.09
2022-10-17T01:47:52.861Z,68663.78
2022-10-17T01:50:26.230Z,68666.03
2022-10-17T01:53:07.953Z,68662.81
2022-10-17T01:55:39.644Z,68657.13
2022-10-17T01:58:27.383Z,68641.38
2022-10-17T02:00:57.467Z,68650.69
2022-10-17T02:03:27.747Z,68637.81
2022-10-17T02:05:55.050Z,68642.16
2022-10-17T02:08:41.120Z,68630.03
2022-10-17T02:11:29.742Z,68633.25
2022-10-17T02:14:02.899Z,68630.78
2022-10-17T02:16:39.492Z,68633.81
2022-10-17T02:19:36.913Z,68605.75
2022-10-17T02:22:16.752Z,68627.00
2022-10-17T02:24:45.694Z,68621.13
2022-10-17T02:27:29.177Z,68611.84
2022-10-17T02:30:41.459Z,68617.72
2022-10-17T02:33:29.317Z,68622.66
2022-10-17T02:36:03.084Z,68609.59
2022-10-17T02:38:33.176Z,68612.59
2022-10-17T02:41:02.182Z,68605.41
2022-10-17T02:43:30.264Z,68607.91
2022-10-17T02:45:58.823Z,68598.63
2022-10-17T02:48:38.576Z,68605.25
2022-10-17T02:51:42.188Z,68609.00
2022-10-17T02:54:21.638Z,68611.50
2022-10-17T02:57:06.890Z,68600.31
2022-10-17T02:59:37.077Z,68604.66
2022-10-17T03:02:06.669Z,68602.41
2022-10-17T03:04:34.693Z,68602.94
2022-10-17T03:07:01.920Z,68599.56
2022-10-17T03:09:29.830Z,68607.31
2022-10-17T03:11:57.771Z,68600.13
2022-10-17T03:14:25.126Z,68602.41
2022-10-17T03:16:52.396Z,68601.84
2022-10-17T03:19:20.172Z,68600.69
2022-10-17T03:21:47.915Z,68593.50
2022-10-17T03:24:15.365Z,68594.44
2022-10-17T03:26:42.621Z,68594.44
2022-10-17T03:29:09.920Z,68605.81
2022-10-17T03:31:37.168Z,68598.63
2022-10-17T03:34:06.548Z,68597.09
2022-10-17T03:36:34.055Z,68598.41
2022-10-17T03:39:01.873Z,68603.72
2022-10-17T03:41:29.857Z,68588.72
2022-10-17T03:43:57.198Z,68604.84
2022-10-17T03:46:25.257Z,68606.56
2022-10-17T03:48:54.154Z,68603.72
2022-10-17T03:51:21.910Z,68609.78
2022-10-17T03:53:54.280Z,68605.97
2022-10-17T03:56:24.773Z,68602.94
2022-10-17T03:59:02.308Z,68605.81
2022-10-17T04:01:32.143Z,68596.31
2022-10-17T04:03:59.847Z,68572.81
2022-10-17T04:06:31.399Z,68594.44
2022-10-17T04:09:00.176Z,68592.75
2022-10-17T04:11:53.387Z,68595.94
2022-10-17T04:14:21.818Z,68586.09
2022-10-17T04:16:49.299Z,68595.94
2022-10-17T04:19:20.658Z,68589.72
2022-10-17T04:21:48.609Z,68579.88
2022-10-17T04:24:15.946Z,68576.47
2022-10-17T04:26:46.086Z,68575.91
2022-10-17T04:29:15.322Z,68580.81
2022-10-17T04:31:44.734Z,68582.91
2022-10-17T04:34:19.913Z,68549.53
2022-10-17T04:36:47.438Z,68574.00
2022-10-17T04:39:15.511Z,68576.84
2022-10-17T04:41:44.370Z,68575.69
2022-10-17T04:44:12.626Z,68564.53
2022-10-17T04:46:44.418Z,68566.63
2022-10-17T04:49:11.665Z,68546.72
2022-10-17T04:51:42.617Z,68570.22
2022-10-17T04:54:17.236Z,68573.81
2022-10-17T04:56:48.643Z,68571.38
2022-10-17T04:59:16.087Z,68568.34
2022-10-17T05:01:45.490Z,68576.28
2022-10-17T05:04:13.702Z,68546.72
2022-10-17T05:06:40.962Z,68542.75
2022-10-17T05:09:28.590Z,68563.41
2022-10-17T05:12:05.462Z,68561.72
2022-10-17T05:14:35.299Z,68568.91
2022-10-17T05:17:03.359Z,68539.34
2022-10-17T05:19:30.616Z,68566.03
2022-10-17T05:21:57.911Z,68566.03
2022-10-17T05:24:25.156Z,68564.94
2022-10-17T05:26:52.514Z,68571.56
2022-10-17T05:29:19.981Z,68574.38
2022-10-17T05:31:53.388Z,68566.63
2022-10-17T05:34:21.275Z,68534.81
2022-10-17T05:36:48.549Z,68558.69
2022-10-17T05:39:19.860Z,68559.25
2022-10-17T05:41:49.058Z,68554.13
2022-10-17T05:44:16.541Z,68552.06
2022-10-17T05:46:49.725Z,68560.94
2022-10-17T05:49:31.992Z,68558.09
2022-10-17T05:52:05.565Z,68546.38
2022-10-17T05:54:41.613Z,68548.44
2022-10-17T05:57:09.071Z,68548.09
2022-10-17T05:59:36.937Z,68548.44
2022-10-17T06:02:11.460Z,68556.59
2022-10-17T06:04:41.010Z,68555.28
2022-10-17T06:07:08.332Z,68538.78
2022-10-17T06:09:35.932Z,68556.97
2022-10-17T06:12:03.532Z,68564.94
2022-10-17T06:14:30.799Z,68564.38
2022-10-17T06:17:01.994Z,68543.88
2022-10-17T06:19:29.274Z,68569.06
2022-10-17T06:22:03.443Z,68575.91
2022-10-17T06:24:31.899Z,68553.53
2022-10-17T06:27:06.786Z,68585.34
2022-10-17T06:29:37.182Z,68602.22
2022-10-17T06:32:04.615Z,68598.03
2022-10-17T06:34:33.074Z,68608.84
2022-10-17T06:37:00.753Z,68614.91
2022-10-17T06:39:33.920Z,68612.25
2022-10-17T06:42:08.711Z,68621.91
2022-10-17T06:44:58.786Z,68613.69
2022-10-17T06:47:40.144Z,68637.22
2022-10-17T06:50:21.733Z,68640.44
2022-10-17T06:52:59.765Z,68650.88
2022-10-17T06:55:58.265Z,68658.84
2022-10-17T06:58:41.450Z,68662.06
2022-10-17T07:01:21.377Z,68669.06
2022-10-17T07:03:50.200Z,68672.47
2022-10-17T07:06:18.081Z,68688.56
2022-10-17T07:08:46.610Z,68696.91
2022-10-17T07:11:20.848Z,68681.31
2022-10-17T07:13:50.576Z,68694.94
2022-10-17T07:16:18.033Z,68719.06
2022-10-17T07:18:51.316Z,68698.91
2022-10-17T07:21:19.472Z,68728.16
2022-10-17T07:23:46.749Z,68742.19
2022-10-17T07:26:16.702Z,68754.31
2022-10-17T07:28:45.850Z,68776.88
2022-10-17T07:31:39.355Z,68792.56
2022-10-17T07:34:06.856Z,68779.66
2022-10-17T07:36:34.387Z,68789.31
2022-10-17T07:39:04.944Z,68827.50
2022-10-17T07:41:33.329Z,68833.94
2022-10-17T07:44:00.751Z,68837.34
2022-10-17T07:46:34.046Z,68843.03
2022-10-17T07:49:01.345Z,68844.34
2022-10-17T07:51:29.759Z,68853.66
2022-10-17T07:53:57.018Z,68863.50
2022-10-17T07:56:24.857Z,68859.25
2022-10-17T07:58:52.865Z,68891.22
2022-10-17T08:01:20.094Z,68901.63
2022-10-17T08:03:48.827Z,68888.81
2022-10-17T08:06:16.233Z,68898.50
2022-10-17T08:08:44.267Z,68935.22
2022-10-17T08:11:14.635Z,68932.75
2022-10-17T08:13:42.304Z,68910.47
2022-10-17T08:16:13.001Z,68930.28
2022-10-17T08:18:43.431Z,68937.34
2022-10-17T08:21:13.078Z,68934.84
2022-10-17T08:23:40.461Z,68939.78
2022-10-17T08:26:10.829Z,68963.50
2022-10-17T08:28:40.122Z,68968.41
2022-10-17T08:31:10.653Z,68966.81
2022-10-17T08:33:38.280Z,68995.75
2022-10-17T08:36:07.318Z,69012.09
2022-10-17T08:38:36.935Z,69023.47
2022-10-17T08:41:11.236Z,69022.03
2022-10-17T08:44:03.334Z,69035.72
2022-10-17T08:46:37.767Z,69070.78
2022-10-17T08:49:13.207Z,69079.16
2022-10-17T08:51:49.875Z,69085.56
2022-10-17T08:54:27.152Z,69123.59
2022-10-17T08:56:55.636Z,69149.97
2022-10-17T08:59:31.475Z,69141.13
2022-10-17T09:02:42.726Z,69183.63
2022-10-17T09:05:34.505Z,69172.97
2022-10-17T09:08:24.669Z,69137.69
2022-10-17T09:11:22.704Z,69132.56
2022-10-17T09:14:00.876Z,69124.00
2022-10-17T09:16:48.122Z,69146.38
2022-10-17T09:19:26.971Z,69142.16
2022-10-17T09:22:06.450Z,69122.88
2022-10-17T09:24:43.455Z,69131.41
2022-10-17T09:28:10.605Z,69172.63
2022-10-17T09:30:46.269Z,69183.44
2022-10-17T09:33:34.642Z,69170.34
2022-10-17T09:36:06.153Z,69152.53
2022-10-17T09:38:43.287Z,69181.16
2022-10-17T09:44:20.321Z,69196.16
2022-10-17T09:47:17.218Z,69184.03
2022-10-17T09:49:46.952Z,69189.72
2022-10-17T09:52:18.169Z,69203.41
2022-10-17T09:55:02.075Z,69188.41
2022-10-17T09:57:29.787Z,69219.38
2022-10-17T10:00:05.947Z,69215.22
2022-10-17T10:02:40.909Z,69222.06
2022-10-17T10:05:21.871Z,69272.03
2022-10-17T10:08:03.550Z,69266.53
2022-10-17T10:10:32.531Z,69280.00
2022-10-17T10:13:22.537Z,69284.00
2022-10-17T10:15:50.825Z,69280.00
2022-10-17T10:18:35.933Z,69250.00
2022-10-17T10:21:15.066Z,69247.75
2022-10-17T10:24:06.806Z,69277.16
2022-10-17T10:26:47.882Z,69263.69
2022-10-17T10:29:29.014Z,69271.13
2022-10-17T10:32:07.345Z,69277.38
2022-10-17T10:34:36.135Z,69274.53
2022-10-17T10:37:07.484Z,69289.91
2022-10-17T10:39:41.714Z,69296.22
2022-10-17T10:42:21.525Z,69324.50
2022-10-17T10:44:50.578Z,69327.00
2022-10-17T10:47:26.249Z,69350.94
2022-10-17T10:50:22.648Z,69354.19
2022-10-17T10:53:05.443Z,69335.56
2022-10-17T10:55:40.401Z,69365.59
2022-10-17T10:58:20.666Z,69379.56
2022-10-17T11:00:49.711Z,69388.28
2022-10-17T11:03:24.079Z,69376.69
2022-10-17T11:06:06.412Z,69414.53
2022-10-17T11:09:12.261Z,69394.94
2022-10-17T11:11:45.721Z,69412.06
2022-10-17T11:14:32.951Z,69408.63
2022-10-17T11:17:27.719Z,69433.97
2022-10-17T11:20:04.173Z,69426.13
2022-10-17T11:22:35.322Z,69425.00
2022-10-17T11:25:32.343Z,69435.09
2022-10-17T11:28:04.631Z,69425.19
2022-10-17T11:30:56.432Z,69420.03
2022-10-17T11:33:40.750Z,69440.97
2022-10-17T11:36:10.339Z,69452.97
2022-10-17T11:38:43.461Z,69442.28
2022-10-17T11:41:22.700Z,69432.63
2022-10-17T11:44:18.693Z,69436.59
2022-10-17T11:46:50.384Z,69464.78
2022-10-17T11:49:40.571Z,69466.69
2022-10-17T11:52:31.624Z,69478.53
2022-10-17T11:55:21.991Z,69478.13
2022-10-17T11:58:11.112Z,69454.88
2022-10-17T12:01:16.195Z,69460.03
2022-10-17T12:04:12.959Z,69502.50
2022-10-17T12:07:12.266Z,69484.56
2022-10-17T12:09:46.174Z,69492.00
2022-10-17T12:12:31.744Z,69523.81
2022-10-17T12:15:20.699Z,69531.81
2022-10-17T12:18:15.537Z,69555.06
2022-10-17T12:20:43.646Z,69548.00
2022-10-17T12:23:10.845Z,69569.69
2022-10-17T12:25:50.745Z,69550.84
2022-10-17T12:28:41.041Z,69565.16
2022-10-17T12:31:29.693Z,69605.38
2022-10-17T12:34:02.560Z,69588.00
2022-10-17T12:36:31.347Z,69609.38
2022-10-17T12:39:02.069Z,69629.81
2022-10-17T12:41:53.868Z,69618.28
2022-10-17T12:44:21.693Z,69614.84
2022-10-17T12:46:49.306Z,69613.69
2022-10-17T12:49:51.115Z,69623.84
2022-10-17T12:52:32.796Z,69621.38
2022-10-17T12:55:18.430Z,69587.44
2022-10-17T12:57:55.560Z,69588.00
2022-10-17T13:00:22.892Z,69590.84
2022-10-17T13:02:54.791Z,69616.56
2022-10-17T13:05:35.510Z,69621.94
2022-10-17T13:08:06.260Z,69587.44
2022-10-17T13:10:41.872Z,69612.00
2022-10-17T13:13:19.087Z,69598.28
2022-10-17T13:15:48.886Z,69606.13
2022-10-17T13:18:23.408Z,69581.72
2022-10-17T13:20:58.619Z,69590.09
2022-10-17T13:23:30.210Z,69554.84
2022-10-17T13:26:14.816Z,69565.72
2022-10-17T13:28:44.034Z,69565.16
2022-10-17T13:31:32.590Z,69572.97
2022-10-17T13:34:02.465Z,69563.84
2022-10-17T13:36:31.430Z,69541.16
2022-10-17T13:39:12.450Z,69531.41
2022-10-17T13:41:42.290Z,69525.69
2022-10-17T13:44:20.605Z,69541.91
2022-10-17T13:46:48.164Z,69508.56
2022-10-17T13:49:22.283Z,69516.97
2022-10-17T13:51:53.579Z,69504.22
2022-10-17T13:54:41.585Z,69478.13
2022-10-17T13:57:30.624Z,69478.69
2022-10-17T14:00:01.735Z,69466.50
2022-10-17T14:02:31.341Z,69461.53
2022-10-17T14:05:17.319Z,69469.56
2022-10-17T14:10:39.147Z,69437.53
2022-10-17T14:13:08.375Z,69405.22
2022-10-17T14:15:37.503Z,69415.84
2022-10-17T14:18:08.322Z,69390.94
2022-10-17T14:23:46.525Z,69393.41
2022-10-17T14:26:17.837Z,69365.81
2022-10-17T14:28:49.146Z,69353.84
2022-10-17T14:31:29.086Z,69368.47
2022-10-17T14:33:56.941Z,69358.19
2022-10-17T14:36:36.183Z,69324.72
2022-10-17T14:39:05.274Z,69319.00
2022-10-17T14:41:44.185Z,69321.88
2022-10-17T14:44:23.048Z,69332.50
2022-10-17T14:46:57.971Z,69331.94
2022-10-17T14:49:40.105Z,69323.38
2022-10-17T14:52:26.381Z,69301.34
2022-10-17T14:54:53.985Z,69315.97
2022-10-17T14:57:31.870Z,69308.53
2022-10-17T14:59:59.274Z,69288.22
2022-10-17T15:02:30.040Z,69300.16
2022-10-17T15:04:58.107Z,69290.84
2022-10-17T15:07:25.436Z,69282.69
2022-10-17T15:09:53.899Z,69257.44
2022-10-17T15:12:25.185Z,69250.56
2022-10-17T15:14:54.024Z,69270.31
2022-10-17T15:17:25.758Z,69244.31
2022-10-17T15:19:53.356Z,69238.03
2022-10-17T15:22:20.735Z,69226.06
2022-10-17T15:24:48.011Z,69239.50
2022-10-17T15:27:21.524Z,69246.00
2022-10-17T15:29:50.042Z,69225.44
2022-10-17T15:32:17.427Z,69226.22
2022-10-17T15:34:44.786Z,69196.41
2022-10-17T15:37:20.981Z,69186.13
2022-10-17T15:39:53.456Z,69207.97
2022-10-17T15:42:30.358Z,69200.72
2022-10-17T15:44:58.813Z,69193.72
2022-10-17T15:47:33.860Z,69189.72
2022-10-17T15:50:01.909Z,69174.91
2022-10-17T15:52:29.224Z,69164.25
2022-10-17T15:55:00.863Z,69139.97
2022-10-17T15:57:36.705Z,69161.97
2022-10-17T16:00:09.914Z,69152.81
2022-10-17T16:02:39.234Z,69145.25
2022-10-17T16:05:29.319Z,69138.00
2022-10-17T16:07:57.608Z,69125.47
2022-10-17T16:10:26.082Z,69110.31
2022-10-17T16:12:53.415Z,69104.06
2022-10-17T16:15:23.408Z,69121.47
2022-10-17T16:17:56.472Z,69112.75
2022-10-17T16:20:40.317Z,69104.78
2022-10-17T16:23:08.532Z,69101.91
2022-10-17T16:25:36.026Z,69094.13
2022-10-17T16:28:04.242Z,69090.53
2022-10-17T16:30:32.504Z,69084.25
2022-10-17T16:33:00.233Z,69079.16
2022-10-17T16:35:31.909Z,69075.88
2022-10-17T16:38:02.520Z,69074.75
2022-10-17T16:40:29.832Z,69065.63
2022-10-17T16:42:57.071Z,69058.22
2022-10-17T16:45:26.539Z,69054.25
2022-10-17T16:47:53.931Z,69047.41
2022-10-17T16:50:21.490Z,69047.97
2022-10-17T16:52:48.915Z,69042.66
2022-10-17T16:55:39.868Z,69031.84
2022-10-17T16:58:08.284Z,69031.84
2022-10-17T17:00:36.092Z,69039.25
2022-10-17T17:03:03.960Z,69031.28
2022-10-17T17:05:31.199Z,69024.44
2022-10-17T17:07:59.443Z,69019.47
2022-10-17T17:10:26.791Z,69023.47
2022-10-17T17:12:54.122Z,69012.25
2022-10-17T17:15:21.375Z,69018.75
2022-10-17T17:17:51.530Z,69016.63
2022-10-17T17:20:22.364Z,68996.97
2022-10-17T17:22:50.847Z,69014.19
2022-10-17T17:25:18.499Z,69008.28
2022-10-17T17:27:45.754Z,69015.50
2022-10-17T17:30:13.220Z,69011.91
2022-10-17T17:32:41.057Z,69000.50
2022-10-17T17:35:09.556Z,69007.91
2022-10-17T17:37:37.225Z,68978.75
2022-10-17T17:40:06.160Z,69014.75
2022-10-17T17:42:33.502Z,69000.13
2022-10-17T17:45:00.742Z,68992.16
2022-10-17T17:47:31.369Z,68994.41
2022-10-17T17:49:58.979Z,68997.69
2022-10-17T17:52:26.400Z,68995.00
2022-10-17T17:54:53.577Z,68992.53
2022-10-17T17:57:20.772Z,68991.03
2022-10-17T17:59:52.339Z,68991.78
2022-10-17T18:02:19.749Z,68986.84
2022-10-17T18:04:47.010Z,68975.47
2022-10-17T18:07:17.357Z,68968.81
2022-10-17T18:09:44.597Z,68964.25
2022-10-17T18:12:11.805Z,68955.72
2022-10-17T18:14:39.105Z,68951.34
2022-10-17T18:17:06.355Z,68946.63
2022-10-17T18:19:33.832Z,68928.69
2022-10-17T18:22:01.094Z,68954.03
2022-10-17T18:24:28.356Z,68934.84
2022-10-17T18:26:59.778Z,68916.72
2022-10-17T18:29:27.747Z,68940.91
2022-10-17T18:31:55.696Z,68935.06
2022-10-17T18:34:23.282Z,68947.41
2022-10-17T18:37:04.145Z,68937.50
2022-10-17T18:39:31.357Z,68936.19
2022-10-17T18:42:06.659Z,68933.34
2022-10-17T18:44:34.416Z,68904.78
2022-10-17T18:47:04.121Z,68925.00
2022-10-17T18:49:31.687Z,68898.50
2022-10-17T18:51:59.853Z,68919.84
2022-10-17T18:54:27.063Z,68914.72
2022-10-17T18:56:55.466Z,68914.53
2022-10-17T18:59:23.179Z,68920.41
2022-10-17T19:01:51.769Z,68923.06
2022-10-17T19:04:19.583Z,68892.81
2022-10-17T19:06:47.436Z,68915.09
2022-10-17T19:09:16.304Z,68915.09
2022-10-17T19:11:44.239Z,68917.97
2022-10-17T19:14:13.710Z,68912.44
2022-10-17T19:16:47.414Z,68891.69
2022-10-17T19:19:20.772Z,68909.59
2022-10-17T19:21:49.003Z,68917.38
2022-10-17T19:24:19.669Z,68913.97
2022-10-17T19:26:50.182Z,68902.59
2022-10-17T19:29:18.480Z,68892.53
2022-10-17T19:31:46.771Z,68903.38
2022-10-17T19:34:15.363Z,68885.53
2022-10-17T19:36:43.069Z,68874.69
2022-10-17T19:39:13.445Z,68858.09
2022-10-17T19:41:42.594Z,68877.00
2022-10-17T19:44:10.442Z,68873.75
2022-10-17T19:46:38.109Z,68879.81
2022-10-17T19:49:06.241Z,68879.47
2022-10-17T19:51:34.129Z,68867.69
2022-10-17T19:54:01.413Z,68889.84
2022-10-17T19:56:36.851Z,68887.59
2022-10-17T19:59:06.843Z,68896.91
2022-10-17T20:01:36.197Z,68889.28
2022-10-17T20:04:04.399Z,68894.63
2022-10-17T20:06:33.607Z,68891.78
2022-10-17T20:09:01.083Z,68887.78
2022-10-17T20:11:29.544Z,68902.03
2022-10-17T20:13:57.532Z,68903.56
2022-10-17T20:16:27.355Z,68895.38
2022-10-17T20:18:56.961Z,68904.88
2022-10-17T20:21:32.430Z,68875.75
2022-10-17T20:24:00.527Z,68903.34
2022-10-17T20:26:44.626Z,68910.72
2022-10-17T20:29:20.559Z,68922.50
2022-10-17T20:31:48.354Z,68913.22
2022-10-17T20:34:16.746Z,68880.88
2022-10-17T20:36:44.128Z,68912.28
2022-10-17T20:39:13.575Z,68897.66
2022-10-17T20:41:41.683Z,68903.16
2022-10-17T20:44:09.233Z,68916.25
2022-10-17T20:46:41.715Z,68903.72
2022-10-17T20:49:18.079Z,68891.38
2022-10-17T20:51:45.706Z,68893.47
2022-10-17T20:54:13.114Z,68879.03
2022-10-17T20:56:40.351Z,68876.41
2022-10-17T20:59:12.337Z,68879.25
2022-10-17T21:01:39.865Z,68879.25
2022-10-17T21:04:33.374Z,68867.22
2022-10-17T21:06:54.411Z,68861.53
2022-10-17T21:09:22.189Z,68871.47
2022-10-17T21:11:55.006Z,68858.97
2022-10-17T21:14:24.116Z,68860.47
2022-10-17T21:16:52.350Z,68839.34
2022-10-17T21:19:21.672Z,68832.53
2022-10-17T21:21:49.642Z,68884.97
2022-10-17T21:24:18.115Z,68885.13
2022-10-17T21:26:47.104Z,68879.81
2022-10-17T21:29:14.451Z,68874.69
2022-10-17T21:31:43.986Z,68864.06
2022-10-17T21:34:18.392Z,68841.63
2022-10-17T21:36:45.640Z,68848.72
2022-10-17T21:39:14.036Z,68849.50
2022-10-17T21:41:42.705Z,68836.59
2022-10-17T21:44:17.263Z,68822.56
2022-10-17T21:46:45.151Z,68817.44
2022-10-17T21:49:13.631Z,68816.88
2022-10-17T21:51:41.658Z,68818.00
2022-10-17T21:54:09.025Z,68785.91
2022-10-17T21:56:36.700Z,68820.31
2022-10-17T21:59:04.844Z,68815.72
2022-10-17T22:01:36.140Z,68826.53
2022-10-17T22:04:06.885Z,68837.91
2022-10-17T22:06:40.821Z,68848.16
2022-10-17T22:09:18.083Z,68855.94
2022-10-17T22:12:17.943Z,68831.97
2022-10-17T22:14:45.299Z,68856.69
2022-10-17T22:17:12.577Z,68858.97
2022-10-17T22:19:39.807Z,68850.41
2022-10-17T22:22:07.094Z,68860.47
2022-10-17T22:24:34.709Z,68861.03
2022-10-17T22:27:02.223Z,68858.38
2022-10-17T22:29:29.731Z,68869.19
2022-10-17T22:31:57.036Z,68860.47
2022-10-17T22:34:24.278Z,68853.84
2022-10-17T22:36:51.629Z,68843.59
2022-10-17T22:39:18.986Z,68842.84
2022-10-17T22:41:46.238Z,68831.47
2022-10-17T22:44:13.530Z,68835.66
2022-10-17T22:46:40.883Z,68835.06
2022-10-17T22:49:08.539Z,68826.38
2022-10-17T22:51:35.879Z,68815.00
2022-10-17T22:54:03.291Z,68800.19
2022-10-17T22:56:30.695Z,68812.13
2022-10-17T22:58:57.984Z,68810.06
2022-10-17T23:01:26.350Z,68801.34
2022-10-17T23:03:53.700Z,68800.38
2022-10-17T23:06:21.185Z,68799.63
2022-10-17T23:08:48.903Z,68807.03
2022-10-17T23:11:16.262Z,68777.22
2022-10-17T23:13:43.607Z,68774.03
2022-10-17T23:16:10.871Z,68766.25
2022-10-17T23:18:38.674Z,68763.22
2022-10-17T23:21:06.165Z,68758.88
2022-10-17T23:23:33.725Z,68746.00
2022-10-17T23:26:09.807Z,68735.72
2022-10-17T23:28:37.605Z,68730.25
2022-10-17T23:31:20.174Z,68739.91
2022-10-17T23:33:49.315Z,68737.25
2022-10-17T23:36:20.064Z,68732.31
2022-10-17T23:38:48.182Z,68722.47
2022-10-17T23:41:16.493Z,68733.66
2022-10-17T23:43:44.414Z,68696.66
2022-10-17T23:46:11.547Z,68711.69
2022-10-17T23:48:39.753Z,68723.44
2022-10-17T23:51:08.526Z,68712.63
2022-10-17T23:53:39.570Z,68697.22
2022-10-17T23:56:08.019Z,68724.38
2022-10-17T23:58:35.914Z,68724.00
